Time;durP1;ratioP1;P1;durP2;ratioP2;P2;SDS_P1;SDS_P2;PMS_P1;PMS_P2;Temp;Humidity;BMP_temperature;BMP_pressure;BME280_temperature;BME280_humidity;BME280_pressure;Samples;Min_cycle;Max_cycle;Signal;HPM_P1;HPM_P2
2021/11/12 00:12:39;;;;;;;68.33;40.40;;;4.90;99.90;;;;;;5090865;27;20433;-89
2021/11/12 00:15:09;;;;;;;68.73;43.13;;;4.90;99.90;;;;;;5137991;27;20440;-90
2021/11/12 00:17:36;;;;;;;80.60;42.47;;;4.90;99.90;;;;;;5139579;27;20452;-89
2021/11/12 00:20:05;;;;;;;75.10;41.33;;;4.90;99.90;;;;;;5128384;27;20566;-90
2021/11/12 00:22:32;;;;;;;68.23;42.10;;;4.80;99.90;;;;;;5132248;28;20552;-90
2021/11/12 00:25:02;;;;;;;70.53;43.20;;;4.70;99.90;;;;;;5127491;27;20477;-90
2021/11/12 00:27:29;;;;;;;82.00;45.30;;;4.70;99.90;;;;;;5139039;27;20488;-90
2021/11/12 00:30:04;;;;;;;77.53;43.70;;;4.70;99.90;;;;;;5119272;27;20473;-90
2021/11/12 00:32:41;;;;;;;79.87;43.80;;;4.70;99.90;;;;;;5117881;28;20483;-89
2021/11/12 00:37:55;;;;;;;74.10;44.70;;;4.60;99.90;;;;;;5130679;28;20443;-89
2021/11/12 00:40:26;;;;;;;77.57;44.37;;;4.60;99.90;;;;;;5099311;28;20462;-90
2021/11/12 00:43:15;;;;;;;74.90;45.07;;;4.60;99.90;;;;;;5097300;27;20481;-90
2021/11/12 00:45:48;;;;;;;72.27;43.70;;;4.40;99.90;;;;;;5098971;28;20989;-88
2021/11/12 00:48:18;;;;;;;92.97;43.23;;;4.30;99.90;;;;;;5096779;28;20446;-89
2021/11/12 00:51:12;;;;;;;84.90;47.40;;;4.30;99.90;;;;;;5096222;28;20518;-89
2021/11/12 00:53:43;;;;;;;85.40;44.37;;;4.30;99.90;;;;;;5147961;27;20445;-90
2021/11/12 00:56:11;;;;;;;80.27;44.20;;;4.40;99.90;;;;;;5146753;27;20448;-89
2021/11/12 00:58:40;;;;;;;77.63;44.23;;;4.40;99.90;;;;;;5128478;27;20491;-88
2021/11/12 01:01:07;;;;;;;71.83;39.00;;;4.50;99.90;;;;;;5129619;28;20476;-88
2021/11/12 01:03:34;;;;;;;78.13;41.90;;;4.40;99.90;;;;;;5139386;28;20430;-89
2021/11/12 01:06:01;;;;;;;74.07;40.97;;;4.30;99.90;;;;;;5132086;28;20450;-89
2021/11/12 01:08:28;;;;;;;76.13;44.67;;;4.20;99.90;;;;;;5153510;27;20444;-90
2021/11/12 01:10:55;;;;;;;76.93;45.07;;;4.20;99.90;;;;;;5159542;27;20447;-88
2021/11/12 01:13:25;;;;;;;78.90;47.10;;;4.30;99.90;;;;;;5160130;27;20439;-88
2021/11/12 01:15:53;;;;;;;81.90;45.27;;;4.30;99.90;;;;;;5160336;27;20459;-88
2021/11/12 01:18:20;;;;;;;79.17;47.10;;;4.30;99.90;;;;;;5159247;27;20430;-88
2021/11/12 01:20:47;;;;;;;71.23;42.63;;;4.40;99.90;;;;;;5159829;27;20477;-88
2021/11/12 01:23:14;;;;;;;65.20;42.80;;;4.40;99.90;;;;;;5159752;27;20442;-87
2021/11/12 01:25:41;;;;;;;80.33;46.97;;;4.40;99.90;;;;;;5157659;27;20475;-89
2021/11/12 01:28:08;;;;;;;71.67;42.47;;;4.40;99.90;;;;;;5145584;27;20537;-89
2021/11/12 01:30:37;;;;;;;71.93;42.53;;;4.40;99.90;;;;;;5139026;28;20512;-88
2021/11/12 01:33:04;;;;;;;73.77;41.20;;;4.40;99.90;;;;;;5138946;27;20431;-87
2021/11/12 01:35:31;;;;;;;65.63;41.23;;;4.40;99.90;;;;;;5138921;28;20466;-85
2021/11/12 01:37:59;;;;;;;73.57;42.03;;;4.40;99.90;;;;;;5139110;28;20430;-86
2021/11/12 01:40:26;;;;;;;69.30;42.43;;;4.30;99.90;;;;;;5138509;28;20480;-87
2021/11/12 01:43:18;;;;;;;64.80;40.13;;;4.30;99.90;;;;;;5138959;28;20434;-88
2021/11/12 01:46:07;;;;;;;73.20;39.77;;;4.20;99.90;;;;;;5135545;28;21435;-85
2021/11/12 01:48:51;;;;;;;60.73;40.97;;;4.30;99.90;;;;;;5153309;27;20495;-86
2021/11/12 01:51:25;;;;;;;70.37;43.20;;;4.20;99.90;;;;;;5159300;27;20437;-87
2021/11/12 01:53:57;;;;;;;64.10;41.87;;;4.20;99.90;;;;;;5159306;27;20408;-89
2021/11/12 01:59:11;;;;;;;66.20;40.80;;;4.30;99.90;;;;;;5157952;27;20520;-89
2021/11/12 02:01:45;;;;;;;62.27;40.00;;;4.30;99.90;;;;;;5159327;27;20428;-87
2021/11/12 02:04:13;;;;;;;66.53;42.00;;;4.20;99.90;;;;;;5141894;27;20459;-86
2021/11/12 02:06:41;;;;;;;65.07;39.97;;;4.20;99.90;;;;;;5149689;27;20472;-89
2021/11/12 02:09:13;;;;;;;57.53;37.00;;;4.20;99.90;;;;;;5143928;27;21288;-89
2021/11/12 02:11:41;;;;;;;53.10;37.27;;;4.20;99.90;;;;;;5142781;28;20522;-89
2021/11/12 02:14:08;;;;;;;55.87;37.13;;;4.20;99.90;;;;;;5162362;27;20492;-89
2021/11/12 02:16:39;;;;;;;53.47;37.17;;;4.20;99.90;;;;;;5162976;27;20432;-89
2021/11/12 02:19:09;;;;;;;55.70;36.70;;;4.10;99.90;;;;;;5142143;27;20461;-89
2021/11/12 02:21:42;;;;;;;51.30;38.17;;;4.10;99.90;;;;;;5141938;28;20440;-87
2021/11/12 02:24:11;;;;;;;53.50;37.27;;;4.10;99.90;;;;;;5162267;27;20418;-86
2021/11/12 02:26:41;;;;;;;47.03;33.47;;;4.10;99.90;;;;;;5162595;27;20450;-87
2021/11/12 02:29:10;;;;;;;50.27;35.33;;;4.10;99.90;;;;;;5142462;27;20488;-88
2021/11/12 02:31:37;;;;;;;57.47;36.40;;;4.10;99.90;;;;;;5124054;28;20448;-89
2021/11/12 02:34:07;;;;;;;49.47;36.60;;;4.10;99.90;;;;;;5139188;27;20443;-89
2021/11/12 02:36:35;;;;;;;49.07;33.27;;;4.00;99.90;;;;;;5140391;27;20431;-89
2021/11/12 02:39:06;;;;;;;48.77;34.00;;;4.00;99.90;;;;;;5139813;27;20577;-89
2021/11/12 02:41:34;;;;;;;51.90;35.70;;;3.90;99.90;;;;;;5153409;27;20478;-88
2021/11/12 02:44:03;;;;;;;46.70;36.87;;;3.90;99.90;;;;;;5145882;27;20452;-89
2021/11/12 02:46:30;;;;;;;51.23;36.33;;;3.90;99.90;;;;;;5119960;28;20930;-90
2021/11/12 02:48:58;;;;;;;53.13;35.97;;;3.80;99.90;;;;;;5119926;28;20467;-90
2021/11/12 02:51:27;;;;;;;46.90;33.70;;;3.90;99.90;;;;;;5121453;27;20441;-89
2021/11/12 02:53:55;;;;;;;48.60;35.97;;;3.80;99.90;;;;;;5119346;28;20445;-89
2021/11/12 02:56:27;;;;;;;49.00;35.50;;;3.80;99.90;;;;;;5131330;27;20455;-88
2021/11/12 02:58:55;;;;;;;46.70;33.57;;;3.80;99.90;;;;;;5139721;27;20465;-89
2021/11/12 03:01:25;;;;;;;48.83;35.80;;;3.80;99.90;;;;;;5129922;27;20886;-90
2021/11/12 03:03:52;;;;;;;51.80;36.03;;;3.80;99.90;;;;;;5134213;28;20567;-89
2021/11/12 03:06:20;;;;;;;53.63;35.60;;;3.80;99.90;;;;;;5150328;27;20463;-87
2021/11/12 03:08:47;;;;;;;52.20;34.20;;;3.80;99.90;;;;;;5162517;27;20443;-89
2021/11/12 03:11:14;;;;;;;54.97;36.43;;;3.80;99.90;;;;;;5149738;27;20431;-89
2021/11/12 03:13:44;;;;;;;57.30;35.13;;;3.80;99.90;;;;;;5131824;28;20474;-89
2021/11/12 03:16:12;;;;;;;56.63;39.40;;;3.90;99.90;;;;;;5125940;28;20446;-89
2021/11/12 03:18:39;;;;;;;53.40;38.57;;;3.80;99.90;;;;;;5132774;28;20490;-89
2021/11/12 03:21:08;;;;;;;52.77;35.30;;;3.70;99.90;;;;;;5140387;27;20479;-88
2021/11/12 03:23:38;;;;;;;49.50;34.73;;;3.60;99.90;;;;;;5148970;27;20445;-89
2021/11/12 03:26:18;;;;;;;57.23;36.73;;;3.50;99.90;;;;;;5147811;27;20465;-88
2021/11/12 03:29:15;;;;;;;55.60;35.50;;;3.60;99.90;;;;;;5127948;27;20481;-89
2021/11/12 03:56:36;;;;;;;50.77;33.47;;;3.90;99.90;;;;;;5141186;28;20465;-90
2021/11/12 04:01:56;;;;;;;57.50;35.90;;;3.90;99.90;;;;;;5135796;27;21031;-89
2021/11/12 04:07:13;;;;;;;52.30;34.60;;;3.90;99.90;;;;;;5125015;27;20921;-89
2021/11/12 04:18:18;;;;;;;57.87;36.50;;;3.80;99.90;;;;;;5081731;27;20507;-89
2021/11/12 04:21:02;;;;;;;57.13;36.50;;;3.70;99.90;;;;;;5140944;27;20487;-90
2021/11/12 05:43:34;;;;;;;42.87;28.93;;;3.20;99.90;;;;;;5081516;28;20468;-90
2021/11/12 05:43:46;;;;;;;41.30;31.57;;;3.30;99.90;;;;;;5077183;28;20425;-89
2021/11/12 05:46:21;;;;;;;39.37;30.10;;;3.30;99.90;;;;;;5076534;28;20460;-89
2021/11/12 05:51:41;;;;;;;44.80;32.30;;;3.40;99.90;;;;;;5077525;28;20442;-89
2021/11/12 05:56:57;;;;;;;36.90;27.73;;;3.50;99.90;;;;;;5079735;28;20444;-89
2021/11/12 05:59:25;;;;;;;39.27;27.47;;;3.50;99.90;;;;;;5077337;28;20423;-89
2021/11/12 06:01:53;;;;;;;43.87;30.50;;;3.50;99.90;;;;;;5081163;28;20985;-89
2021/11/12 06:04:21;;;;;;;46.17;32.40;;;3.50;99.90;;;;;;5078835;28;20444;-89
2021/11/12 06:06:47;;;;;;;44.57;30.23;;;3.50;99.90;;;;;;5073859;28;20451;-89
2021/11/12 06:09:17;;;;;;;41.30;29.43;;;3.50;99.90;;;;;;5082152;28;20457;-91
2021/11/12 06:11:44;;;;;;;38.90;30.47;;;3.50;99.90;;;;;;5078442;28;21013;-90
2021/11/12 06:14:15;;;;;;;38.80;29.70;;;3.50;99.90;;;;;;5080306;28;20860;-90
2021/11/12 06:16:42;;;;;;;37.20;28.97;;;3.50;99.90;;;;;;5090120;28;20434;-89
2021/11/12 06:19:09;;;;;;;45.43;29.63;;;3.50;99.90;;;;;;5082282;28;20459;-88
2021/11/12 06:21:36;;;;;;;42.63;28.00;;;3.40;99.90;;;;;;5098776;28;20456;-89
2021/11/12 06:24:03;;;;;;;41.13;29.97;;;3.40;99.90;;;;;;5098880;28;20474;-89
2021/11/12 06:26:30;;;;;;;45.47;33.63;;;3.50;99.90;;;;;;5097233;28;20445;-89
2021/11/12 06:28:58;;;;;;;40.37;29.20;;;3.40;99.90;;;;;;5106730;28;20484;-89
2021/11/12 06:31:27;;;;;;;52.73;31.43;;;3.40;99.90;;;;;;5100433;28;20565;-90
2021/11/12 06:33:55;;;;;;;36.90;28.17;;;3.40;99.90;;;;;;5102440;28;20450;-89
2021/11/12 06:36:23;;;;;;;34.67;28.47;;;3.40;99.90;;;;;;5099039;28;20442;-90
2021/11/12 06:38:51;;;;;;;46.83;30.10;;;3.40;99.90;;;;;;5108351;28;20455;-89
2021/11/12 06:41:27;;;;;;;39.43;30.13;;;3.30;99.90;;;;;;5099755;28;20503;-90
2021/11/12 06:43:57;;;;;;;47.20;32.57;;;3.30;99.90;;;;;;5097623;28;20481;-89
2021/11/12 06:49:19;;;;;;;45.20;31.73;;;3.30;99.90;;;;;;5107338;28;20515;-90
2021/11/12 06:51:46;;;;;;;47.73;34.90;;;3.40;99.90;;;;;;5101077;28;20443;-89
2021/11/12 06:54:13;;;;;;;42.50;33.17;;;3.40;99.90;;;;;;5099580;28;20839;-90
2021/11/12 06:56:40;;;;;;;47.40;32.37;;;3.40;99.90;;;;;;5112153;28;20429;-90
2021/11/12 06:59:07;;;;;;;46.17;32.73;;;3.30;99.90;;;;;;5113791;28;20451;-86
2021/11/12 07:01:35;;;;;;;43.93;31.77;;;3.40;99.90;;;;;;5116049;28;20432;-88
2021/11/12 07:04:10;;;;;;;45.93;32.83;;;3.30;99.90;;;;;;5119491;28;20515;-88
2021/11/12 07:06:37;;;;;;;44.17;30.20;;;3.40;99.90;;;;;;5110511;28;20924;-89
2021/11/12 07:09:05;;;;;;;43.13;31.87;;;3.40;99.90;;;;;;5101814;28;20487;-88
2021/11/12 07:11:31;;;;;;;44.17;31.07;;;3.30;99.90;;;;;;5101547;28;20505;-89
2021/11/12 07:13:58;;;;;;;49.00;32.00;;;3.40;99.90;;;;;;5099300;28;20516;-89
2021/11/12 07:16:25;;;;;;;44.10;32.20;;;3.40;99.90;;;;;;5095549;28;20792;-90
2021/11/12 07:18:54;;;;;;;51.77;34.17;;;3.40;99.90;;;;;;5100070;28;20447;-90
2021/11/12 07:21:22;;;;;;;46.40;33.77;;;3.50;99.90;;;;;;5111685;28;20497;-89
2021/11/12 07:23:49;;;;;;;45.40;31.77;;;3.50;99.90;;;;;;5098756;28;20450;-89
2021/11/12 07:26:17;;;;;;;48.37;32.10;;;3.60;99.90;;;;;;5102476;28;20438;-88
2021/11/12 07:28:46;;;;;;;47.83;31.33;;;3.60;99.90;;;;;;5106778;28;20473;-89
2021/11/12 07:31:16;;;;;;;59.60;35.57;;;3.60;99.90;;;;;;5099237;28;20452;-90
2021/11/12 07:33:43;;;;;;;42.60;30.83;;;3.60;99.90;;;;;;5107746;28;20455;-89
2021/11/12 07:36:17;;;;;;;48.73;32.13;;;3.60;99.90;;;;;;5098397;28;20464;-88
2021/11/12 07:38:49;;;;;;;42.83;31.07;;;3.60;99.90;;;;;;5092412;28;20479;-89
2021/11/12 07:41:40;;;;;;;42.00;31.10;;;3.60;99.90;;;;;;5098624;28;20472;-89
2021/11/12 07:44:19;;;;;;;47.67;33.23;;;3.70;99.90;;;;;;5099115;28;20448;-89
2021/11/12 07:46:57;;;;;;;41.07;31.57;;;3.70;99.90;;;;;;5101638;28;20445;-87
2021/11/12 07:49:24;;;;;;;38.17;30.70;;;3.70;99.90;;;;;;5100569;28;20472;-87
2021/11/12 07:51:53;;;;;;;37.70;31.37;;;3.70;99.90;;;;;;5098011;28;20508;-87
2021/11/12 07:54:19;;;;;;;39.13;31.80;;;3.70;99.90;;;;;;5102038;28;20862;-87
2021/11/12 07:56:48;;;;;;;42.37;30.47;;;3.80;99.90;;;;;;5112202;28;20881;-87
2021/11/12 07:59:16;;;;;;;37.67;29.40;;;3.80;99.90;;;;;;5111923;28;20479;-86
2021/11/12 08:01:43;;;;;;;34.30;29.03;;;3.90;99.90;;;;;;5112871;28;20493;-87
2021/11/12 08:04:10;;;;;;;40.27;30.53;;;3.90;99.90;;;;;;5100691;28;20453;-86
2021/11/12 08:06:37;;;;;;;33.30;28.93;;;3.70;99.90;;;;;;5102758;28;20510;-87
2021/11/12 08:09:08;;;;;;;39.07;29.00;;;3.80;99.90;;;;;;5097061;28;20569;-87
2021/11/12 08:11:36;;;;;;;41.27;29.77;;;3.70;99.90;;;;;;5095376;28;20520;-87
2021/11/12 08:14:09;;;;;;;37.60;28.93;;;3.70;99.90;;;;;;5097132;28;20452;-86
2021/11/12 08:17:03;;;;;;;39.70;30.70;;;3.70;99.90;;;;;;5100563;28;20457;-87
2021/11/12 08:19:34;;;;;;;41.23;31.77;;;3.70;99.90;;;;;;5102910;28;21061;-87
2021/11/12 08:22:04;;;;;;;37.30;28.77;;;3.80;99.90;;;;;;5111445;28;20447;-87
2021/11/12 08:24:38;;;;;;;41.47;29.07;;;3.90;99.90;;;;;;5111366;28;20517;-86
2021/11/12 08:27:17;;;;;;;37.27;29.67;;;4.00;99.90;;;;;;5100030;28;20449;-87
2021/11/12 08:30:03;;;;;;;38.80;30.77;;;4.00;99.90;;;;;;5099805;28;20511;-87
2021/11/12 08:35:53;;;;;;;36.70;27.93;;;4.20;99.90;;;;;;5044243;28;20446;-86
2021/11/12 08:38:39;;;;;;;40.53;28.47;;;4.10;99.90;;;;;;5084847;28;20445;-87
2021/11/12 08:41:11;;;;;;;34.23;27.27;;;4.00;99.90;;;;;;5116014;28;20460;-86
2021/11/12 08:43:41;;;;;;;31.43;27.13;;;4.20;99.90;;;;;;5105608;28;20469;-85
2021/11/12 08:46:15;;;;;;;39.63;27.97;;;4.30;99.90;;;;;;5114145;28;20463;-88
2021/11/12 08:48:52;;;;;;;34.97;28.27;;;4.30;99.90;;;;;;5102337;28;20477;-88
2021/11/12 08:51:20;;;;;;;35.60;28.17;;;4.40;99.90;;;;;;5102298;28;20464;-86
2021/11/12 08:53:48;;;;;;;32.20;26.77;;;4.50;99.90;;;;;;5100133;28;20446;-88
2021/11/12 08:56:16;;;;;;;35.83;29.13;;;4.70;99.90;;;;;;5115049;28;20452;-86
2021/11/12 08:58:48;;;;;;;31.93;27.50;;;4.50;99.90;;;;;;5109273;28;20471;-88
2021/11/12 09:01:16;;;;;;;36.50;28.10;;;4.70;99.90;;;;;;5103141;28;20473;-88
2021/11/12 09:03:43;;;;;;;31.73;27.20;;;4.70;99.90;;;;;;5118773;28;20454;-88
2021/11/12 09:06:10;;;;;;;34.40;29.97;;;4.80;99.90;;;;;;5119237;28;20425;-87
2021/11/12 09:08:38;;;;;;;35.47;28.07;;;4.80;99.90;;;;;;5117311;28;21095;-87
2021/11/12 09:11:07;;;;;;;36.17;29.20;;;4.70;99.90;;;;;;5105812;28;20496;-87
2021/11/12 09:13:40;;;;;;;31.00;27.53;;;4.70;99.90;;;;;;5117272;28;20444;-87
2021/11/12 09:16:11;;;;;;;36.57;27.60;;;4.70;99.90;;;;;;5116271;28;20476;-87
2021/11/12 09:18:39;;;;;;;34.07;29.17;;;4.60;99.90;;;;;;5112318;28;20472;-87
2021/11/12 09:21:06;;;;;;;37.40;29.00;;;4.70;99.90;;;;;;5110827;28;20476;-87
2021/11/12 09:23:33;;;;;;;38.70;28.47;;;4.80;99.90;;;;;;5111995;28;20451;-87
2021/11/12 09:26:00;;;;;;;34.40;28.60;;;4.80;99.90;;;;;;5101844;28;20949;-87
2021/11/12 09:28:27;;;;;;;32.40;27.53;;;4.90;99.90;;;;;;5101856;28;20464;-86
2021/11/12 09:30:55;;;;;;;38.30;31.50;;;4.90;99.90;;;;;;5102230;28;20478;-87
2021/11/12 09:33:22;;;;;;;34.70;30.07;;;5.00;99.90;;;;;;5105203;28;20430;-85
2021/11/12 09:35:49;;;;;;;38.07;27.60;;;5.20;99.90;;;;;;5080624;28;20453;-90
2021/11/12 09:38:16;;;;;;;37.80;28.73;;;5.20;99.90;;;;;;5086228;28;20446;-88
2021/11/12 09:40:43;;;;;;;30.87;27.47;;;5.10;99.90;;;;;;5101774;28;20457;-87
2021/11/12 09:43:11;;;;;;;33.77;28.90;;;5.00;99.90;;;;;;5099946;28;20521;-87
2021/11/12 09:45:38;;;;;;;38.00;28.30;;;4.80;99.90;;;;;;5106072;28;20438;-87
2021/11/12 09:48:09;;;;;;;34.20;28.93;;;5.00;99.90;;;;;;5099849;28;20446;-88
2021/11/12 09:50:36;;;;;;;40.00;31.67;;;4.90;99.90;;;;;;5100349;28;20978;-87
2021/11/12 09:53:04;;;;;;;35.83;28.80;;;5.10;99.90;;;;;;5105844;28;20437;-87
2021/11/12 09:55:32;;;;;;;41.57;30.90;;;5.10;99.90;;;;;;5102299;28;20442;-86
2021/11/12 09:58:02;;;;;;;38.30;30.43;;;5.10;99.90;;;;;;5107055;28;20450;-86
2021/11/12 10:00:30;;;;;;;41.17;32.80;;;5.10;99.90;;;;;;5099291;28;20470;-87
2021/11/12 10:02:58;;;;;;;39.70;33.77;;;5.20;99.90;;;;;;5090903;28;20523;-87
2021/11/12 10:05:39;;;;;;;38.50;29.73;;;5.30;99.90;;;;;;5089158;28;20439;-86
2021/11/12 10:08:19;;;;;;;37.00;31.47;;;5.30;99.90;;;;;;5095404;28;20446;-87
2021/11/12 10:10:49;;;;;;;43.53;31.70;;;5.40;99.90;;;;;;5093777;28;20462;-87
2021/11/12 10:13:26;;;;;;;42.83;31.03;;;5.40;99.90;;;;;;5089937;28;20441;-87
2021/11/12 10:16:02;;;;;;;42.43;31.67;;;5.50;99.90;;;;;;5087373;28;20443;-86
2021/11/12 10:18:29;;;;;;;38.90;30.27;;;5.70;99.90;;;;;;5088351;28;20527;-87
2021/11/12 10:21:03;;;;;;;35.70;29.93;;;5.90;99.90;;;;;;5093694;28;20478;-87
2021/11/12 10:23:35;;;;;;;37.00;30.50;;;6.00;99.90;;;;;;5085534;28;20446;-87
2021/11/12 10:26:06;;;;;;;35.83;29.00;;;6.20;99.90;;;;;;5098355;28;20465;-88
2021/11/12 10:28:37;;;;;;;38.73;30.60;;;6.30;99.90;;;;;;5104557;28;20472;-86
2021/11/12 10:31:12;;;;;;;36.43;28.83;;;6.30;99.90;;;;;;5108574;28;20489;-85
2021/11/12 10:33:39;;;;;;;33.80;30.03;;;6.30;99.90;;;;;;5100686;28;20441;-86
2021/11/12 10:36:08;;;;;;;36.17;31.30;;;6.40;99.90;;;;;;5100490;28;20873;-85
2021/11/12 10:38:40;;;;;;;34.43;30.40;;;6.40;99.90;;;;;;5091771;28;20471;-87
2021/11/12 10:41:29;;;;;;;32.33;28.80;;;6.40;99.90;;;;;;5097390;28;20832;-87
2021/11/12 10:43:56;;;;;;;35.30;28.40;;;6.60;99.90;;;;;;5090467;28;20537;-88
2021/11/12 10:46:38;;;;;;;35.70;30.97;;;6.60;99.90;;;;;;5101431;28;20528;-89
2021/11/12 10:49:28;;;;;;;34.00;29.23;;;6.50;99.90;;;;;;5120288;28;20461;-87
2021/11/12 10:51:59;;;;;;;36.33;29.53;;;6.30;99.90;;;;;;5108426;28;20443;-89
2021/11/12 10:54:37;;;;;;;37.93;31.70;;;6.40;99.90;;;;;;5101419;28;20485;-86
2021/11/12 10:57:05;;;;;;;41.00;32.00;;;6.50;99.90;;;;;;5103796;28;20438;-86
2021/11/12 10:59:35;;;;;;;37.13;29.00;;;6.50;99.90;;;;;;5103394;28;20458;-87
2021/11/12 11:02:01;;;;;;;33.40;29.37;;;6.60;99.90;;;;;;5107095;28;20451;-88
2021/11/12 11:04:30;;;;;;;37.83;29.17;;;6.40;99.90;;;;;;5101181;28;20978;-88
2021/11/12 11:07:17;;;;;;;39.90;34.47;;;6.50;99.90;;;;;;5099782;28;20462;-88
2021/11/12 11:09:44;;;;;;;38.23;32.00;;;6.40;99.90;;;;;;5105093;28;20481;-88
2021/11/12 11:12:31;;;;;;;39.20;33.37;;;6.30;99.90;;;;;;5105751;28;20441;-88
2021/11/12 11:15:11;;;;;;;38.53;31.43;;;6.40;99.90;;;;;;5100200;28;20450;-88
2021/11/12 11:17:41;;;;;;;41.67;33.00;;;6.50;99.90;;;;;;5104944;28;20514;-88
2021/11/12 11:20:10;;;;;;;38.93;34.10;;;6.50;99.90;;;;;;5109557;28;20472;-89
2021/11/12 11:22:46;;;;;;;43.73;34.60;;;6.60;99.90;;;;;;5101827;28;20446;-86
2021/11/12 11:25:13;;;;;;;41.80;33.60;;;6.70;99.90;;;;;;5101889;28;20437;-86
2021/11/12 11:27:42;;;;;;;44.10;31.73;;;6.50;99.90;;;;;;5103392;28;20468;-88
2021/11/12 11:30:10;;;;;;;44.33;34.00;;;6.30;99.90;;;;;;5089252;22;20487;-88
2021/11/12 11:32:37;;;;;;;39.80;32.20;;;6.50;99.90;;;;;;5076794;28;20916;-89
2021/11/12 11:35:06;;;;;;;39.83;32.97;;;6.60;99.90;;;;;;5075050;28;20436;-88
2021/11/12 11:37:33;;;;;;;40.13;32.87;;;6.80;99.90;;;;;;5077268;28;21013;-88
2021/11/12 11:40:02;;;;;;;42.83;31.47;;;7.00;99.90;;;;;;5093311;28;20478;-89
2021/11/12 11:42:30;;;;;;;41.50;34.00;;;7.20;99.90;;;;;;5103714;28;20504;-88
2021/11/12 11:44:57;;;;;;;40.77;34.73;;;7.40;99.90;;;;;;5091955;28;20452;-89
2021/11/12 11:47:24;;;;;;;40.37;32.80;;;7.60;99.90;;;;;;5091052;28;20439;-90
2021/11/12 11:49:52;;;;;;;38.87;33.70;;;7.70;99.90;;;;;;5103001;28;20500;-90
2021/11/12 11:52:26;;;;;;;37.30;31.50;;;7.90;99.90;;;;;;5091521;28;20458;-89
2021/11/12 11:54:52;;;;;;;34.80;30.83;;;8.30;99.90;;;;;;5082075;28;20448;-88
2021/11/12 11:57:23;;;;;;;41.43;31.30;;;8.40;99.90;;;;;;5084397;28;20826;-89
2021/11/12 12:00:10;;;;;;;42.23;33.47;;;8.70;99.90;;;;;;5082673;28;20463;-89
2021/11/12 12:02:39;;;;;;;36.70;32.30;;;9.10;99.90;;;;;;5085909;28;20519;-90
2021/11/12 12:05:07;;;;;;;44.83;35.20;;;9.50;99.90;;;;;;5085460;28;20466;-90
2021/11/12 12:07:42;;;;;;;42.93;38.20;;;10.10;99.90;;;;;;5083944;28;20471;-89
2021/11/12 12:10:22;;;;;;;43.07;34.60;;;10.70;99.90;;;;;;5085229;28;20490;-90
2021/11/12 12:12:57;;;;;;;40.00;33.93;;;10.60;99.90;;;;;;5094513;28;20533;-89
2021/11/12 12:15:51;;;;;;;40.77;33.70;;;10.90;99.90;;;;;;5090233;28;20516;-89
2021/11/12 12:18:23;;;;;;;42.97;35.77;;;11.00;99.90;;;;;;5092618;28;20440;-89
2021/11/12 12:21:44;;;;;;;39.90;35.07;;;11.40;99.70;;;;;;5090674;28;20543;-88
2021/11/12 12:31:16;;;;;;;41.37;36.93;;;11.40;99.60;;;;;;5121562;28;20452;-89
2021/11/12 12:34:18;;;;;;;42.27;35.60;;;11.40;98.30;;;;;;5137935;27;20444;-88
2021/11/12 13:22:53;;;;;;;55.33;42.70;;;9.90;99.90;;;;;;5118744;28;20499;-88
2021/11/12 13:25:32;;;;;;;57.63;43.13;;;9.70;99.90;;;;;;5120192;28;20442;-88
2021/11/12 13:28:07;;;;;;;53.33;43.30;;;9.60;99.90;;;;;;5119508;28;20429;-88
2021/11/12 13:30:36;;;;;;;54.93;44.23;;;9.40;99.90;;;;;;5119523;28;20448;-88
2021/11/12 13:33:02;;;;;;;57.50;42.80;;;9.10;99.90;;;;;;5120183;28;20433;-89
2021/11/12 13:35:30;;;;;;;53.23;40.23;;;9.00;99.90;;;;;;5117440;28;20472;-88
2021/11/12 13:37:57;;;;;;;57.10;41.80;;;8.90;99.90;;;;;;5119999;28;20853;-89
2021/11/12 13:40:30;;;;;;;53.80;41.17;;;8.90;99.90;;;;;;5119332;28;20466;-88
2021/11/12 13:42:57;;;;;;;55.27;42.67;;;8.70;99.90;;;;;;5138522;28;20456;-87
2021/11/12 13:45:26;;;;;;;66.00;45.77;;;8.60;99.90;;;;;;5145579;27;20437;-85
2021/11/12 13:48:09;;;;;;;60.27;44.67;;;8.50;99.90;;;;;;5139317;27;20472;-86
2021/11/12 13:50:37;;;;;;;71.20;50.63;;;8.50;99.90;;;;;;5125851;28;20450;-86
2021/11/12 13:53:05;;;;;;;57.57;43.80;;;8.30;99.90;;;;;;5116575;28;20439;-87
2021/11/12 13:55:36;;;;;;;49.90;39.60;;;8.10;99.90;;;;;;5115799;28;20935;-87
2021/11/12 13:58:05;;;;;;;51.43;38.70;;;8.00;99.90;;;;;;5113198;28;20990;-87
2021/11/12 14:00:33;;;;;;;55.00;40.93;;;7.90;99.90;;;;;;5110625;28;20487;-85
2021/11/12 14:03:06;;;;;;;50.83;40.10;;;7.80;99.90;;;;;;5117038;28;20446;-87
2021/11/12 14:05:34;;;;;;;51.83;40.33;;;7.80;99.90;;;;;;5115117;28;20450;-88
2021/11/12 14:08:07;;;;;;;45.93;36.27;;;7.70;99.90;;;;;;5114784;28;20986;-86
2021/11/12 14:10:41;;;;;;;47.67;38.90;;;7.60;99.90;;;;;;5126417;28;20472;-86
2021/11/12 14:13:09;;;;;;;49.83;37.90;;;7.60;99.90;;;;;;5122565;28;20469;-88
2021/11/12 14:15:42;;;;;;;49.40;35.53;;;7.50;99.90;;;;;;5124279;28;20525;-81
2021/11/12 14:18:32;;;;;;;47.47;36.73;;;7.50;99.90;;;;;;5114772;28;20470;-83
2021/11/12 14:21:17;;;;;;;53.20;39.07;;;7.50;99.90;;;;;;5111988;28;20514;-85
2021/11/12 14:26:40;;;;;;;53.07;39.87;;;7.30;99.90;;;;;;5105792;28;20427;-84
2021/11/12 14:29:09;;;;;;;46.93;37.20;;;7.30;99.90;;;;;;5111414;28;20457;-85
2021/11/12 14:34:39;;;;;;;55.03;41.33;;;7.10;99.90;;;;;;5120205;28;20563;-89
2021/11/12 14:37:10;;;;;;;51.17;39.83;;;7.10;99.90;;;;;;5111185;28;20474;-87
2021/11/12 14:39:48;;;;;;;60.47;42.13;;;7.10;99.90;;;;;;5108451;28;20512;-89
2021/11/12 14:45:10;;;;;;;59.37;42.50;;;7.00;99.90;;;;;;5107590;28;20418;-89
2021/11/12 14:47:54;;;;;;;56.33;40.50;;;7.00;99.90;;;;;;5106431;28;20469;-89
2021/11/12 14:50:42;;;;;;;47.03;35.90;;;7.00;99.90;;;;;;5106987;28;20462;-89
2021/11/12 14:56:07;;;;;;;45.03;35.53;;;6.80;99.90;;;;;;5101078;28;20437;-89
2021/11/12 14:58:35;;;;;;;47.43;34.87;;;6.80;99.90;;;;;;5106403;28;20508;-89
2021/11/12 15:01:18;;;;;;;41.27;33.10;;;6.70;99.90;;;;;;5124032;28;20456;-88
2021/11/12 15:03:45;;;;;;;45.57;33.07;;;6.60;99.90;;;;;;5128435;28;20430;-90
2021/11/12 15:06:17;;;;;;;40.60;31.63;;;6.60;99.90;;;;;;5110132;28;20515;-89
2021/11/12 15:08:48;;;;;;;42.07;33.40;;;6.60;99.90;;;;;;5110438;28;20442;-89
2021/11/12 15:11:21;;;;;;;45.83;32.27;;;6.60;99.90;;;;;;5117395;28;20840;-90
2021/11/12 15:13:50;;;;;;;41.73;32.63;;;6.50;99.90;;;;;;5105378;28;20606;-90
2021/11/12 15:16:19;;;;;;;44.27;32.83;;;6.50;99.90;;;;;;5108791;28;20431;-89
2021/11/12 15:18:55;;;;;;;43.87;32.60;;;6.40;99.90;;;;;;5106003;28;20530;-89
2021/11/12 15:21:30;;;;;;;50.60;35.53;;;6.30;99.90;;;;;;5115074;28;20445;-89
2021/11/12 15:24:13;;;;;;;45.30;34.13;;;6.20;99.90;;;;;;5110328;28;20442;-88
2021/11/12 15:26:52;;;;;;;42.83;32.00;;;6.10;99.90;;;;;;5105947;28;20879;-89
2021/11/12 15:29:21;;;;;;;44.10;31.60;;;6.10;99.90;;;;;;5108150;28;20477;-90
2021/11/12 15:31:57;;;;;;;43.97;33.27;;;6.00;99.90;;;;;;5107569;28;20454;-89
2021/11/12 15:34:24;;;;;;;45.70;33.27;;;6.00;99.90;;;;;;5106219;28;20841;-89
2021/11/12 15:36:59;;;;;;;51.67;37.80;;;6.00;99.90;;;;;;5105369;28;20430;-89
2021/11/12 15:39:38;;;;;;;44.77;33.10;;;6.00;99.90;;;;;;5104925;28;20484;-89
2021/11/12 15:44:51;;;;;;;46.20;33.40;;;6.00;99.90;;;;;;5130400;28;20445;-88
2021/11/12 15:47:23;;;;;;;41.70;32.00;;;6.00;99.90;;;;;;5127157;28;20431;-90
2021/11/12 15:49:53;;;;;;;45.10;31.23;;;5.90;99.90;;;;;;5114749;28;20872;-89
2021/11/12 15:52:23;;;;;;;44.40;32.97;;;5.90;99.90;;;;;;5106944;28;20434;-89
2021/11/12 15:55:07;;;;;;;47.00;33.80;;;5.90;99.90;;;;;;5108070;28;20445;-89
2021/11/12 16:00:34;;;;;;;43.93;33.03;;;5.90;99.90;;;;;;5278971;22;20517;-89
2021/11/12 16:14:06;;;;;;;44.80;31.13;;;5.80;99.90;;;;;;5097008;28;20480;-89
2021/11/12 16:19:22;;;;;;;40.70;30.27;;;5.80;99.90;;;;;;5099707;28;20530;-89
2021/11/12 16:24:46;;;;;;;40.83;28.73;;;5.70;99.90;;;;;;5098447;28;20427;-90
2021/11/12 16:27:13;;;;;;;45.53;30.87;;;5.70;99.90;;;;;;5110863;28;20962;-89
2021/11/12 16:29:42;;;;;;;39.03;28.40;;;5.70;99.90;;;;;;5110524;28;20484;-88
2021/11/12 16:32:19;;;;;;;42.93;29.73;;;5.70;99.90;;;;;;5108521;28;21136;-89
2021/11/12 16:34:47;;;;;;;41.00;30.00;;;5.70;99.90;;;;;;5099676;28;20533;-89
2021/11/12 16:37:17;;;;;;;39.50;26.97;;;5.60;99.90;;;;;;5103305;28;20439;-89
2021/11/12 16:39:48;;;;;;;38.53;28.63;;;5.60;99.90;;;;;;5103768;28;20991;-90
2021/11/12 16:42:27;;;;;;;40.27;30.47;;;5.60;99.90;;;;;;5114751;28;20450;-90
2021/11/12 16:44:59;;;;;;;49.53;31.83;;;5.60;99.90;;;;;;5101451;28;20447;-90
2021/11/12 16:47:44;;;;;;;74.77;54.70;;;5.60;99.90;;;;;;5102225;28;20448;-89
2021/11/12 16:50:34;;;;;;;47.00;31.93;;;5.50;99.90;;;;;;5098881;28;20494;-89